FK-0027 weather

Bleaker Island Airport
Bleaker Island, Falkland Islands

Public forecast

Using degrees Celsius for public forecast. Weather courtesy of forecast.io.

METAR (pilot weather report)

Closest report is Mount Pleasant Airport, 26.4 nm (48.8 km) NE. Retrieved 2019/07/20 02:50 UTC (1 hour ago):

EGYP 200250Z 27012KT CAVOK 02/01 Q0984 BLU

TAF (pilot weather forecast)

Closest forecast is Mount Pleasant Airport, 26.4 nm (48.8 km) NE. Retrieved 2019/07/20 03:38 UTC (34 minutes ago):

TAF EGYP 200133Z 2003/2021 27008KT 9999 FEW020 PROB40 TEMPO 2003/2011 3000 BR BKN003 PROB30 TEMPO 2003/2011 0500 FG BKN000 BECMG 2011/2014 29016G26KT PROB30 TEMPO 2011/2015 4000 SHGS BKN012CB PROB30 TEMPO 2015/2021 -SHRA SCT015 BECMG 2018/2021 30014KT